sensor_id;sensor_type;location;lat;lon;timestamp;pressure;altitude;pressure_sealevel;temperature;humidity
49945;BME280;35838;49.134;9.212;2023-08-20T05:35:05;100336.97;;;22.30;100.00
49945;BME280;35838;49.134;9.212;2023-08-20T05:36:39;100338.75;;;22.30;100.00
49945;BME280;35838;49.134;9.212;2023-08-20T05:38:10;100345.69;;;22.32;100.00
49945;BME280;35838;49.134;9.212;2023-08-20T05:39:43;100352.91;;;22.29;100.00
49945;BME280;35838;49.134;9.212;2023-08-20T05:41:15;100347.31;;;22.35;100.00
49945;BME280;35838;49.134;9.212;2023-08-20T05:42:48;100356.75;;;22.42;100.00
49945;BME280;35838;49.134;9.212;2023-08-20T05:44:19;100359.91;;;22.30;100.00
49945;BME280;35838;49.134;9.212;2023-08-20T05:45:53;100368.47;;;22.35;100.00
49945;BME280;35838;49.134;9.212;2023-08-20T05:47:27;100378.06;;;22.37;100.00
49945;BME280;35838;49.134;9.212;2023-08-20T05:48:58;100386.66;;;22.43;100.00
49945;BME280;35838;49.134;9.212;2023-08-20T05:50:34;100393.00;;;22.38;100.00
49945;BME280;35838;49.134;9.212;2023-08-20T05:52:05;100395.31;;;22.46;100.00
49945;BME280;35838;49.134;9.212;2023-08-20T05:53:39;100388.69;;;22.57;100.00
49945;BME280;35838;49.134;9.212;2023-08-20T05:55:10;100387.34;;;22.67;100.00
49945;BME280;35838;49.134;9.212;2023-08-20T05:56:44;100382.44;;;22.77;100.00
49945;BME280;35838;49.134;9.212;2023-08-20T05:58:15;100376.94;;;22.81;100.00
49945;BME280;35838;49.134;9.212;2023-08-20T05:59:49;100389.88;;;22.88;100.00
49945;BME280;35838;49.134;9.212;2023-08-20T06:01:22;100392.38;;;22.91;100.00
49945;BME280;35838;49.134;9.212;2023-08-20T06:02:53;100386.25;;;22.90;100.00
49945;BME280;35838;49.134;9.212;2023-08-20T06:04:27;100392.06;;;22.97;100.00
49945;BME280;35838;49.134;9.212;2023-08-20T06:06:01;100386.50;;;23.03;100.00
49945;BME280;35838;49.134;9.212;2023-08-20T06:07:34;100390.66;;;23.09;100.00
49945;BME280;35838;49.134;9.212;2023-08-20T06:09:05;100386.19;;;23.09;100.00
49945;BME280;35838;49.134;9.212;2023-08-20T06:10:39;100388.47;;;23.17;100.00
49945;BME280;35838;49.134;9.212;2023-08-20T06:12:13;100389.22;;;23.21;100.00
49945;BME280;35838;49.134;9.212;2023-08-20T06:13:44;100384.53;;;23.26;100.00
49945;BME280;35838;49.134;9.212;2023-08-20T06:15:17;100382.69;;;23.28;100.00
49945;BME280;35838;49.134;9.212;2023-08-20T06:16:48;100390.63;;;23.28;100.00
49945;BME280;35838;49.134;9.212;2023-08-20T06:18:22;100392.41;;;23.27;100.00
49945;BME280;35838;49.134;9.212;2023-08-20T06:19:53;100392.78;;;23.20;100.00
49945;BME280;35838;49.134;9.212;2023-08-20T06:21:29;100398.94;;;23.20;100.00
49945;BME280;35838;49.134;9.212;2023-08-20T06:23:00;100403.25;;;23.23;100.00
49945;BME280;35838;49.134;9.212;2023-08-20T06:24:34;100402.06;;;23.28;100.00
49945;BME280;35838;49.134;9.212;2023-08-20T06:26:05;100390.09;;;23.39;100.00
49945;BME280;35838;49.134;9.212;2023-08-20T06:27:38;100395.16;;;23.43;100.00
49945;BME280;35838;49.134;9.212;2023-08-20T06:29:09;100385.91;;;23.52;100.00
49945;BME280;35838;49.134;9.212;2023-08-20T06:30:44;100389.25;;;23.56;100.00
49945;BME280;35838;49.134;9.212;2023-08-20T06:32:15;100398.81;;;23.58;100.00
49945;BME280;35838;49.134;9.212;2023-08-20T06:33:48;100383.72;;;23.60;100.00
49945;BME280;35838;49.134;9.212;2023-08-20T06:35:22;100381.69;;;23.66;100.00
49945;BME280;35838;49.134;9.212;2023-08-20T06:36:58;100379.81;;;23.68;100.00
49945;BME280;35838;49.134;9.212;2023-08-20T06:38:32;100390.31;;;23.69;100.00
49945;BME280;35838;49.134;9.212;2023-08-20T06:40:06;100382.59;;;23.65;100.00
49945;BME280;35838;49.134;9.212;2023-08-20T06:41:40;100383.47;;;23.65;100.00
49945;BME280;35838;49.134;9.212;2023-08-20T06:43:13;100382.56;;;23.66;100.00
49945;BME280;35838;49.134;9.212;2023-08-20T06:44:44;100392.19;;;23.67;100.00
49945;BME280;35838;49.134;9.212;2023-08-20T06:46:18;100393.84;;;23.70;100.00
49945;BME280;35838;49.134;9.212;2023-08-20T06:47:49;100395.78;;;23.66;100.00
49945;BME280;35838;49.134;9.212;2023-08-20T06:49:23;100399.66;;;23.59;100.00
49945;BME280;35838;49.134;9.212;2023-08-20T06:50:54;100390.72;;;23.61;100.00
49945;BME280;35838;49.134;9.212;2023-08-20T06:52:30;100394.22;;;23.62;100.00
49945;BME280;35838;49.134;9.212;2023-08-20T06:54:01;100383.47;;;23.65;100.00
49945;BME280;35838;49.134;9.212;2023-08-20T06:55:36;100386.88;;;23.67;100.00
49945;BME280;35838;49.134;9.212;2023-08-20T06:57:10;100382.00;;;23.77;100.00
49945;BME280;35838;49.134;9.212;2023-08-20T06:58:41;100383.13;;;23.89;100.00
49945;BME280;35838;49.134;9.212;2023-08-20T07:00:15;100377.59;;;23.93;100.00
49945;BME280;35838;49.134;9.212;2023-08-20T07:01:46;100371.16;;;23.99;100.00
49945;BME280;35838;49.134;9.212;2023-08-20T07:03:20;100376.03;;;24.07;100.00
49945;BME280;35838;49.134;9.212;2023-08-20T07:04:51;100382.81;;;24.13;100.00
49945;BME280;35838;49.134;9.212;2023-08-20T07:06:25;100385.16;;;24.19;100.00
49945;BME280;35838;49.134;9.212;2023-08-20T07:07:58;100384.03;;;24.23;100.00
49945;BME280;35838;49.134;9.212;2023-08-20T07:09:32;100373.88;;;24.31;100.00
49945;BME280;35838;49.134;9.212;2023-08-20T07:11:03;100376.38;;;24.34;100.00
49945;BME280;35838;49.134;9.212;2023-08-20T07:12:36;100364.81;;;24.35;100.00
49945;BME280;35838;49.134;9.212;2023-08-20T07:14:10;100372.44;;;24.41;100.00
49945;BME280;35838;49.134;9.212;2023-08-20T07:15:41;100368.44;;;24.50;100.00
49945;BME280;35838;49.134;9.212;2023-08-20T07:17:15;100370.38;;;24.63;100.00
49945;BME280;35838;49.134;9.212;2023-08-20T07:18:46;100369.53;;;24.62;100.00
49945;BME280;35838;49.134;9.212;2023-08-20T07:20:19;100375.59;;;24.64;100.00
49945;BME280;35838;49.134;9.212;2023-08-20T07:21:59;100373.66;;;24.52;100.00
49945;BME280;35838;49.134;9.212;2023-08-20T07:23:35;100385.53;;;24.61;100.00
49945;BME280;35838;49.134;9.212;2023-08-20T07:25:07;100387.94;;;24.65;100.00
49945;BME280;35838;49.134;9.212;2023-08-20T07:26:40;100390.09;;;24.75;100.00
49945;BME280;35838;49.134;9.212;2023-08-20T07:28:11;100392.34;;;24.82;100.00
49945;BME280;35838;49.134;9.212;2023-08-20T07:29:45;100395.53;;;24.89;100.00
49945;BME280;35838;49.134;9.212;2023-08-20T07:31:16;100386.16;;;24.82;100.00
49945;BME280;35838;49.134;9.212;2023-08-20T07:32:50;100389.44;;;24.87;100.00
49945;BME280;35838;49.134;9.212;2023-08-20T07:34:21;100384.78;;;24.75;100.00
49945;BME280;35838;49.134;9.212;2023-08-20T07:35:54;100386.31;;;24.63;100.00
49945;BME280;35838;49.134;9.212;2023-08-20T07:37:25;100392.50;;;24.63;100.00
49945;BME280;35838;49.134;9.212;2023-08-20T07:39:02;100403.09;;;24.63;100.00
49945;BME280;35838;49.134;9.212;2023-08-20T07:40:33;100407.63;;;24.61;100.00
49945;BME280;35838;49.134;9.212;2023-08-20T07:42:07;100396.22;;;24.59;100.00
49945;BME280;35838;49.134;9.212;2023-08-20T07:43:38;100395.41;;;24.59;100.00
49945;BME280;35838;49.134;9.212;2023-08-20T07:45:12;100398.53;;;24.65;100.00
49945;BME280;35838;49.134;9.212;2023-08-20T07:46:43;100399.19;;;24.70;100.00
49945;BME280;35838;49.134;9.212;2023-08-20T07:48:17;100408.00;;;24.71;100.00
49945;BME280;35838;49.134;9.212;2023-08-20T07:49:48;100403.38;;;24.75;100.00
49945;BME280;35838;49.134;9.212;2023-08-20T07:51:22;100409.47;;;24.77;100.00
49945;BME280;35838;49.134;9.212;2023-08-20T07:52:55;100399.69;;;24.77;100.00
49945;BME280;35838;49.134;9.212;2023-08-20T07:54:29;100398.50;;;24.83;100.00
49945;BME280;35838;49.134;9.212;2023-08-20T07:56:03;100390.53;;;24.83;100.00
49945;BME280;35838;49.134;9.212;2023-08-20T07:57:34;100392.66;;;24.92;100.00
49945;BME280;35838;49.134;9.212;2023-08-20T07:59:08;100397.47;;;25.01;100.00
49945;BME280;35838;49.134;9.212;2023-08-20T08:00:39;100395.31;;;25.08;100.00
49945;BME280;35838;49.134;9.212;2023-08-20T08:02:12;100395.22;;;25.10;100.00
49945;BME280;35838;49.134;9.212;2023-08-20T08:03:43;100397.72;;;25.13;100.00
49945;BME280;35838;49.134;9.212;2023-08-20T08:05:17;100395.72;;;25.16;100.00
49945;BME280;35838;49.134;9.212;2023-08-20T08:06:51;100395.91;;;25.13;100.00
49945;BME280;35838;49.134;9.212;2023-08-20T08:08:22;100391.47;;;25.14;100.00
49945;BME280;35838;49.134;9.212;2023-08-20T08:09:58;100390.78;;;25.10;100.00
49945;BME280;35838;49.134;9.212;2023-08-20T08:11:29;100396.00;;;25.12;100.00
49945;BME280;35838;49.134;9.212;2023-08-20T08:13:03;100393.91;;;25.17;100.00
49945;BME280;35838;49.134;9.212;2023-08-20T08:14:34;100401.72;;;25.20;100.00
49945;BME280;35838;49.134;9.212;2023-08-20T08:16:08;100397.03;;;25.25;100.00
49945;BME280;35838;49.134;9.212;2023-08-20T08:17:41;100405.56;;;25.30;100.00
49945;BME280;35838;49.134;9.212;2023-08-20T08:19:15;100403.47;;;25.35;100.00
49945;BME280;35838;49.134;9.212;2023-08-20T08:20:49;100393.50;;;25.41;100.00
49945;BME280;35838;49.134;9.212;2023-08-20T08:22:20;100389.69;;;25.45;100.00
49945;BME280;35838;49.134;9.212;2023-08-20T08:23:54;100392.41;;;25.59;100.00
49945;BME280;35838;49.134;9.212;2023-08-20T08:25:28;100376.84;;;25.68;100.00
49945;BME280;35838;49.134;9.212;2023-08-20T08:27:02;100375.53;;;25.75;100.00
49945;BME280;35838;49.134;9.212;2023-08-20T08:28:36;100382.00;;;25.85;100.00
49945;BME280;35838;49.134;9.212;2023-08-20T08:30:07;100373.25;;;25.69;100.00
49945;BME280;35838;49.134;9.212;2023-08-20T08:31:40;100374.25;;;25.52;100.00
49945;BME280;35838;49.134;9.212;2023-08-20T08:33:11;100373.13;;;25.56;100.00
49945;BME280;35838;49.134;9.212;2023-08-20T08:34:45;100375.41;;;25.62;100.00
49945;BME280;35838;49.134;9.212;2023-08-20T08:36:16;100377.59;;;25.70;100.00
49945;BME280;35838;49.134;9.212;2023-08-20T08:37:50;100380.69;;;25.78;100.00
49945;BME280;35838;49.134;9.212;2023-08-20T08:39:21;100366.06;;;25.85;100.00
49945;BME280;35838;49.134;9.212;2023-08-20T08:40:58;100378.03;;;25.92;100.00
49945;BME280;35838;49.134;9.212;2023-08-20T08:42:29;100368.91;;;25.96;100.00
49945;BME280;35838;49.134;9.212;2023-08-20T08:44:03;100365.13;;;26.01;100.00
49945;BME280;35838;49.134;9.212;2023-08-20T08:45:36;100364.72;;;26.07;100.00
49945;BME280;35838;49.134;9.212;2023-08-20T08:47:10;100358.84;;;26.02;100.00
49945;BME280;35838;49.134;9.212;2023-08-20T08:48:44;100361.13;;;26.08;100.00
49945;BME280;35838;49.134;9.212;2023-08-20T08:50:20;100358.69;;;26.19;100.00
49945;BME280;35838;49.134;9.212;2023-08-20T08:51:51;100363.13;;;26.19;100.00
49945;BME280;35838;49.134;9.212;2023-08-20T08:53:27;100366.88;;;26.31;100.00
49945;BME280;35838;49.134;9.212;2023-08-20T08:54:58;100363.22;;;26.32;100.00
49945;BME280;35838;49.134;9.212;2023-08-20T08:56:34;100361.16;;;26.37;100.00
49945;BME280;35838;49.134;9.212;2023-08-20T08:58:05;100366.13;;;26.56;100.00
49945;BME280;35838;49.134;9.212;2023-08-20T08:59:39;100362.13;;;26.63;100.00
49945;BME280;35838;49.134;9.212;2023-08-20T09:01:13;100357.66;;;26.78;100.00
49945;BME280;35838;49.134;9.212;2023-08-20T09:02:47;100361.53;;;26.87;100.00
49945;BME280;35838;49.134;9.212;2023-08-20T09:04:18;100355.63;;;26.96;100.00
49945;BME280;35838;49.134;9.212;2023-08-20T09:05:54;100350.00;;;27.01;100.00
49945;BME280;35838;49.134;9.212;2023-08-20T09:07:28;100345.31;;;27.04;100.00
49945;BME280;35838;49.134;9.212;2023-08-20T09:09:03;100346.91;;;27.07;100.00
49945;BME280;35838;49.134;9.212;2023-08-20T09:10:37;100322.94;;;27.07;100.00
49945;BME280;35838;49.134;9.212;2023-08-20T09:12:16;100334.19;;;26.98;100.00
49945;BME280;35838;49.134;9.212;2023-08-20T09:13:50;100337.63;;;27.00;100.00
49945;BME280;35838;49.134;9.212;2023-08-20T09:15:31;100329.06;;;26.95;100.00
49945;BME280;35838;49.134;9.212;2023-08-20T09:17:02;100331.00;;;26.93;100.00
49945;BME280;35838;49.134;9.212;2023-08-20T09:18:37;100339.00;;;26.93;100.00
49945;BME280;35838;49.134;9.212;2023-08-20T09:20:09;100333.84;;;26.89;100.00
49945;BME280;35838;49.134;9.212;2023-08-20T09:21:45;100334.19;;;26.98;100.00
49945;BME280;35838;49.134;9.212;2023-08-20T09:23:17;100336.03;;;26.97;100.00
49945;BME280;35838;49.134;9.212;2023-08-20T09:24:54;100330.72;;;27.10;100.00
49945;BME280;35838;49.134;9.212;2023-08-20T09:26:25;100333.63;;;27.20;100.00
49945;BME280;35838;49.134;9.212;2023-08-20T09:28:01;100339.41;;;27.27;100.00
49945;BME280;35838;49.134;9.212;2023-08-20T09:29:33;100324.25;;;27.27;100.00
49945;BME280;35838;49.134;9.212;2023-08-20T09:31:06;100325.78;;;27.31;100.00
49945;BME280;35838;49.134;9.212;2023-08-20T09:32:40;100316.16;;;27.29;100.00
49945;BME280;35838;49.134;9.212;2023-08-20T09:34:12;100319.81;;;27.41;100.00
49945;BME280;35838;49.134;9.212;2023-08-20T09:35:48;100310.34;;;27.49;100.00
49945;BME280;35838;49.134;9.212;2023-08-20T09:37:20;100318.16;;;27.52;100.00
49945;BME280;35838;49.134;9.212;2023-08-20T09:38:54;100304.06;;;27.50;100.00
49945;BME280;35838;49.134;9.212;2023-08-20T09:40:28;100304.25;;;27.47;100.00
49945;BME280;35838;49.134;9.212;2023-08-20T09:41:59;100303.63;;;27.44;100.00
49945;BME280;35838;49.134;9.212;2023-08-20T09:43:35;100311.63;;;27.57;100.00
49945;BME280;35838;49.134;9.212;2023-08-20T09:45:09;100317.50;;;27.62;100.00
49945;BME280;35838;49.134;9.212;2023-08-20T09:46:43;100310.47;;;27.61;100.00
49945;BME280;35838;49.134;9.212;2023-08-20T09:48:16;100308.56;;;27.63;100.00
49945;BME280;35838;49.134;9.212;2023-08-20T09:49:51;100308.75;;;27.60;100.00
49945;BME280;35838;49.134;9.212;2023-08-20T09:51:24;100304.28;;;27.60;100.00
49945;BME280;35838;49.134;9.212;2023-08-20T09:53:01;100300.88;;;27.71;100.00
49945;BME280;35838;49.134;9.212;2023-08-20T09:54:36;100299.16;;;27.83;100.00
49945;BME280;35838;49.134;9.212;2023-08-20T09:56:14;100301.06;;;27.81;100.00
49945;BME280;35838;49.134;9.212;2023-08-20T09:57:48;100298.84;;;27.88;100.00
49945;BME280;35838;49.134;9.212;2023-08-20T09:59:23;100300.22;;;27.93;100.00
49945;BME280;35838;49.134;9.212;2023-08-20T10:00:57;100300.53;;;28.02;100.00
49945;BME280;35838;49.134;9.212;2023-08-20T10:02:31;100300.19;;;28.06;100.00
49945;BME280;35838;49.134;9.212;2023-08-20T10:04:03;100298.56;;;28.04;100.00
49945;BME280;35838;49.134;9.212;2023-08-20T10:05:39;100303.63;;;28.08;100.00
49945;BME280;35838;49.134;9.212;2023-08-20T10:07:11;100297.88;;;28.14;100.00
49945;BME280;35838;49.134;9.212;2023-08-20T10:08:44;100308.84;;;28.23;100.00
49945;BME280;35838;49.134;9.212;2023-08-20T10:10:17;100298.25;;;28.21;100.00
49945;BME280;35838;49.134;9.212;2023-08-20T10:11:51;100290.06;;;28.11;100.00
49945;BME280;35838;49.134;9.212;2023-08-20T10:13:22;100293.03;;;28.20;100.00
49945;BME280;35838;49.134;9.212;2023-08-20T10:14:58;100290.38;;;28.20;100.00
49945;BME280;35838;49.134;9.212;2023-08-20T10:16:30;100285.03;;;28.20;100.00
49945;BME280;35838;49.134;9.212;2023-08-20T10:18:07;100291.63;;;28.27;100.00
49945;BME280;35838;49.134;9.212;2023-08-20T10:19:38;100292.50;;;28.27;100.00
49945;BME280;35838;49.134;9.212;2023-08-20T10:21:12;100301.25;;;28.29;100.00
49945;BME280;35838;49.134;9.212;2023-08-20T10:22:44;100302.22;;;28.28;100.00
49945;BME280;35838;49.134;9.212;2023-08-20T10:24:18;100298.66;;;28.28;100.00
49945;BME280;35838;49.134;9.212;2023-08-20T10:25:50;100296.75;;;28.30;100.00
49945;BME280;35838;49.134;9.212;2023-08-20T10:27:25;100289.59;;;28.30;100.00
49945;BME280;35838;49.134;9.212;2023-08-20T10:32:45;100299.88;;;28.48;100.00
49945;BME280;35838;49.134;9.212;2023-08-20T10:34:21;100295.19;;;28.52;100.00
49945;BME280;35838;49.134;9.212;2023-08-20T10:36:09;100288.81;;;28.41;100.00
49945;BME280;35838;49.134;9.212;2023-08-20T10:39:29;100304.09;;;28.64;100.00
49945;BME280;35838;49.134;9.212;2023-08-20T10:41:03;100298.31;;;28.70;100.00
49945;BME280;35838;49.134;9.212;2023-08-20T10:42:40;100286.03;;;28.67;100.00
49945;BME280;35838;49.134;9.212;2023-08-20T10:44:14;100279.75;;;28.68;100.00
49945;BME280;35838;49.134;9.212;2023-08-20T10:45:45;100285.47;;;28.75;100.00
49945;BME280;35838;49.134;9.212;2023-08-20T10:47:47;100285.25;;;28.78;100.00
49945;BME280;35838;49.134;9.212;2023-08-20T10:49:21;100282.03;;;28.86;100.00
49945;BME280;35838;49.134;9.212;2023-08-20T10:50:52;100285.69;;;28.96;100.00
49945;BME280;35838;49.134;9.212;2023-08-20T10:52:26;100281.88;;;29.12;100.00
49945;BME280;35838;49.134;9.212;2023-08-20T10:54:03;100283.59;;;29.13;100.00
49945;BME280;35838;49.134;9.212;2023-08-20T10:55:35;100284.69;;;29.21;100.00
49945;BME280;35838;49.134;9.212;2023-08-20T10:57:08;100276.06;;;29.18;100.00
49945;BME280;35838;49.134;9.212;2023-08-20T10:58:43;100282.13;;;29.20;100.00
49945;BME280;35838;49.134;9.212;2023-08-20T11:00:17;100274.88;;;29.22;100.00
49945;BME280;35838;49.134;9.212;2023-08-20T11:01:48;100280.69;;;29.27;100.00
49945;BME280;35838;49.134;9.212;2023-08-20T11:03:25;100271.75;;;29.04;100.00
49945;BME280;35838;49.134;9.212;2023-08-20T11:04:57;100268.75;;;29.08;100.00
49945;BME280;35838;49.134;9.212;2023-08-20T11:06:31;100269.47;;;29.11;100.00
49945;BME280;35838;49.134;9.212;2023-08-20T11:08:02;100262.91;;;29.15;100.00
49945;BME280;35838;49.134;9.212;2023-08-20T11:09:38;100258.41;;;29.04;100.00
49945;BME280;35838;49.134;9.212;2023-08-20T11:11:11;100265.09;;;29.10;100.00
49945;BME280;35838;49.134;9.212;2023-08-20T11:12:45;100268.78;;;29.20;100.00
49945;BME280;35838;49.134;9.212;2023-08-20T11:14:17;100263.56;;;29.30;100.00
49945;BME280;35838;49.134;9.212;2023-08-20T11:15:51;100262.72;;;29.29;100.00
49945;BME280;35838;49.134;9.212;2023-08-20T11:17:22;100258.03;;;29.33;100.00
49945;BME280;35838;49.134;9.212;2023-08-20T11:18:58;100260.94;;;29.41;100.00
49945;BME280;35838;49.134;9.212;2023-08-20T11:20:29;100249.91;;;29.46;100.00
49945;BME280;35838;49.134;9.212;2023-08-20T11:22:04;100257.88;;;29.34;100.00
49945;BME280;35838;49.134;9.212;2023-08-20T11:23:35;100249.16;;;29.44;100.00
49945;BME280;35838;49.134;9.212;2023-08-20T11:25:10;100250.88;;;29.56;100.00
49945;BME280;35838;49.134;9.212;2023-08-20T11:26:45;100257.91;;;29.80;100.00
49945;BME280;35838;49.134;9.212;2023-08-20T11:28:16;100251.50;;;29.94;100.00
49945;BME280;35838;49.134;9.212;2023-08-20T11:29:49;100246.38;;;30.02;100.00
49945;BME280;35838;49.134;9.212;2023-08-20T11:31:24;100247.22;;;30.14;100.00
49945;BME280;35838;49.134;9.212;2023-08-20T11:32:56;100247.81;;;30.17;100.00
49945;BME280;35838;49.134;9.212;2023-08-20T11:34:32;100243.06;;;30.21;100.00
49945;BME280;35838;49.134;9.212;2023-08-20T11:36:06;100240.66;;;30.18;100.00
49945;BME280;35838;49.134;9.212;2023-08-20T11:37:37;100245.63;;;30.23;100.00
49945;BME280;35838;49.134;9.212;2023-08-20T11:39:11;100246.09;;;30.28;100.00
49945;BME280;35838;49.134;9.212;2023-08-20T11:40:42;100246.22;;;30.26;100.00
49945;BME280;35838;49.134;9.212;2023-08-20T11:42:16;100237.47;;;30.24;100.00
49945;BME280;35838;49.134;9.212;2023-08-20T11:43:47;100238.66;;;30.20;100.00
49945;BME280;35838;49.134;9.212;2023-08-20T11:45:21;100234.03;;;30.22;100.00
49945;BME280;35838;49.134;9.212;2023-08-20T11:46:52;100243.00;;;30.44;100.00
49945;BME280;35838;49.134;9.212;2023-08-20T11:48:25;100236.41;;;30.59;100.00
49945;BME280;35838;49.134;9.212;2023-08-20T11:50:06;100242.34;;;30.63;100.00
49945;BME280;35838;49.134;9.212;2023-08-20T11:51:41;100234.44;;;30.61;100.00
49945;BME280;35838;49.134;9.212;2023-08-20T11:53:12;100238.44;;;30.67;100.00
49945;BME280;35838;49.134;9.212;2023-08-20T11:54:46;100240.34;;;30.76;100.00
49945;BME280;35838;49.134;9.212;2023-08-20T11:56:18;100239.28;;;30.68;100.00
49945;BME280;35838;49.134;9.212;2023-08-20T11:57:52;100232.81;;;30.70;100.00
49945;BME280;35838;49.134;9.212;2023-08-20T11:59:23;100231.97;;;30.70;100.00
49945;BME280;35838;49.134;9.212;2023-08-20T12:00:56;100226.81;;;30.78;100.00
49945;BME280;35838;49.134;9.212;2023-08-20T12:02:28;100227.47;;;30.91;100.00
49945;BME280;35838;49.134;9.212;2023-08-20T12:04:03;100228.91;;;30.95;100.00
49945;BME280;35838;49.134;9.212;2023-08-20T12:05:37;100221.31;;;30.79;100.00
49945;BME280;35838;49.134;9.212;2023-08-20T12:07:14;100214.84;;;30.82;100.00
49945;BME280;35838;49.134;9.212;2023-08-20T12:08:45;100219.31;;;30.93;100.00
49945;BME280;35838;49.134;9.212;2023-08-20T12:10:19;100221.13;;;30.92;100.00
49945;BME280;35838;49.134;9.212;2023-08-20T12:11:50;100220.53;;;30.89;100.00
49945;BME280;35838;49.134;9.212;2023-08-20T12:13:26;100212.91;;;30.84;100.00
49945;BME280;35838;49.134;9.212;2023-08-20T12:14:58;100217.09;;;30.77;100.00
49945;BME280;35838;49.134;9.212;2023-08-20T12:16:32;100221.66;;;30.86;100.00
49945;BME280;35838;49.134;9.212;2023-08-20T12:18:03;100215.25;;;30.99;100.00
49945;BME280;35838;49.134;9.212;2023-08-20T12:19:39;100220.31;;;31.13;100.00
49945;BME280;35838;49.134;9.212;2023-08-20T12:21:12;100216.94;;;31.00;100.00
49945;BME280;35838;49.134;9.212;2023-08-20T12:22:46;100221.13;;;30.92;100.00
49945;BME280;35838;49.134;9.212;2023-08-20T12:24:17;100218.06;;;30.97;100.00
49945;BME280;35838;49.134;9.212;2023-08-20T12:25:51;100213.44;;;30.99;100.00
49945;BME280;35838;49.134;9.212;2023-08-20T12:27:25;100215.38;;;30.97;100.00
49945;BME280;35838;49.134;9.212;2023-08-20T12:28:58;100207.94;;;31.01;100.00
49945;BME280;35838;49.134;9.212;2023-08-20T12:30:31;100205.66;;;31.17;100.00
49945;BME280;35838;49.134;9.212;2023-08-20T12:32:03;100211.25;;;31.35;100.00
49945;BME280;35838;49.134;9.212;2023-08-20T12:33:37;100209.91;;;31.51;100.00
49945;BME280;35838;49.134;9.212;2023-08-20T12:35:08;100202.19;;;31.57;100.00
49945;BME280;35838;49.134;9.212;2023-08-20T12:36:45;100199.75;;;31.54;100.00
49945;BME280;35838;49.134;9.212;2023-08-20T12:38:16;100200.00;;;31.41;100.00
49945;BME280;35838;49.134;9.212;2023-08-20T12:39:49;100199.34;;;31.49;100.00
49945;BME280;35838;49.134;9.212;2023-08-20T12:41:20;100203.03;;;31.58;100.00
49945;BME280;35838;49.134;9.212;2023-08-20T12:42:54;100201.09;;;31.70;100.00
49945;BME280;35838;49.134;9.212;2023-08-20T12:44:25;100201.09;;;31.70;100.00
49945;BME280;35838;49.134;9.212;2023-08-20T12:45:59;100196.63;;;31.80;100.00
49945;BME280;35838;49.134;9.212;2023-08-20T12:47:34;100192.53;;;31.76;100.00
49945;BME280;35838;49.134;9.212;2023-08-20T12:49:05;100199.31;;;31.80;100.00
49945;BME280;35838;49.134;9.212;2023-08-20T12:50:38;100193.84;;;31.92;100.00
49945;BME280;35838;49.134;9.212;2023-08-20T12:52:12;100192.13;;;31.91;100.00
49945;BME280;35838;49.134;9.212;2023-08-20T12:53:47;100186.88;;;31.79;100.00
49945;BME280;35838;49.134;9.212;2023-08-20T12:55:21;100186.63;;;31.82;100.00
49945;BME280;35838;49.134;9.212;2023-08-20T12:56:55;100188.00;;;31.67;100.00
49945;BME280;35838;49.134;9.212;2023-08-20T12:58:26;100184.81;;;31.62;100.00
49945;BME280;35838;49.134;9.212;2023-08-20T12:59:59;100184.31;;;31.68;100.00
49945;BME280;35838;49.134;9.212;2023-08-20T13:01:30;100182.34;;;31.70;100.00
49945;BME280;35838;49.134;9.212;2023-08-20T13:03:04;100177.44;;;31.75;100.00
49945;BME280;35838;49.134;9.212;2023-08-20T13:04:36;100180.97;;;31.85;100.00
49945;BME280;35838;49.134;9.212;2023-08-20T13:06:10;100184.97;;;32.01;100.00
49945;BME280;35838;49.134;9.212;2023-08-20T13:07:47;100179.03;;;32.07;100.00
49945;BME280;35838;49.134;9.212;2023-08-20T13:09:19;100182.44;;;32.09;100.00
49945;BME280;35838;49.134;9.212;2023-08-20T13:10:53;100181.00;;;32.05;100.00
49945;BME280;35838;49.134;9.212;2023-08-20T13:12:27;100177.91;;;32.00;100.00
49945;BME280;35838;49.134;9.212;2023-08-20T13:13:59;100174.78;;;32.14;100.00
49945;BME280;35838;49.134;9.212;2023-08-20T13:15:33;100169.16;;;32.17;100.00
49945;BME280;35838;49.134;9.212;2023-08-20T13:17:04;100172.09;;;32.14;100.00
49945;BME280;35838;49.134;9.212;2023-08-20T13:18:38;100175.41;;;32.28;100.00
49945;BME280;35838;49.134;9.212;2023-08-20T13:20:12;100174.25;;;32.40;100.00
49945;BME280;35838;49.134;9.212;2023-08-20T13:21:43;100175.69;;;32.25;100.00
49945;BME280;35838;49.134;9.212;2023-08-20T13:23:19;100170.84;;;32.18;100.00
49945;BME280;35838;49.134;9.212;2023-08-20T13:24:54;100171.16;;;32.35;100.00
49945;BME280;35838;49.134;9.212;2023-08-20T13:26:27;100166.06;;;32.52;100.00
49945;BME280;35838;49.134;9.212;2023-08-20T13:28:01;100165.78;;;32.64;100.00
49945;BME280;35838;49.134;9.212;2023-08-20T13:29:32;100170.31;;;32.64;100.00
49945;BME280;35838;49.134;9.212;2023-08-20T13:31:06;100161.09;;;32.76;99.21
49945;BME280;35838;49.134;9.212;2023-08-20T13:32:37;100162.53;;;32.61;95.33
49945;BME280;35838;49.134;9.212;2023-08-20T13:34:11;100164.94;;;32.44;96.14
49945;BME280;35838;49.134;9.212;2023-08-20T13:35:45;100164.66;;;32.38;96.52
49945;BME280;35838;49.134;9.212;2023-08-20T13:37:16;100162.84;;;32.38;98.88
49945;BME280;35838;49.134;9.212;2023-08-20T13:38:53;100158.16;;;32.60;100.00
49945;BME280;35838;49.134;9.212;2023-08-20T13:40:24;100162.38;;;32.72;100.00
49945;BME280;35838;49.134;9.212;2023-08-20T13:41:58;100156.03;;;32.73;98.80